createdAt,value
2019-04-10T00:01:37.007Z,96.50
2019-04-10T00:04:04.929Z,96.50
2019-04-10T00:06:34.055Z,96.40
2019-04-10T00:09:00.966Z,96.40
2019-04-10T00:11:29.312Z,96.50
2019-04-10T00:13:56.931Z,96.50
2019-04-10T00:16:24.552Z,96.60
2019-04-10T00:18:52.116Z,96.60
2019-04-10T00:21:20.969Z,96.60
2019-04-10T00:23:49.156Z,96.60
2019-04-10T00:26:15.692Z,96.60
2019-04-10T00:28:43.611Z,96.70
2019-04-10T00:31:10.919Z,96.70
2019-04-10T00:33:38.510Z,96.60
2019-04-10T00:36:06.552Z,96.60
2019-04-10T00:38:34.138Z,96.60
2019-04-10T00:41:02.492Z,96.50
2019-04-10T00:43:30.831Z,96.50
2019-04-10T00:45:57.906Z,96.40
2019-04-10T00:48:25.949Z,96.40
2019-04-10T00:50:53.010Z,96.00
2019-04-10T00:53:21.163Z,96.10
2019-04-10T00:55:48.206Z,95.70
2019-04-10T00:58:16.231Z,95.70
2019-04-10T01:00:44.110Z,95.30
2019-04-10T01:03:11.733Z,95.20
2019-04-10T01:05:39.627Z,95.30
2019-04-10T01:08:06.937Z,95.40
2019-04-10T01:10:36.751Z,95.40
2019-04-10T01:13:03.496Z,95.10
2019-04-10T01:15:31.083Z,94.70
2019-04-10T01:17:59.035Z,94.70
2019-04-10T01:20:27.075Z,94.90
2019-04-10T01:22:55.426Z,95.10
2019-04-10T01:25:24.113Z,94.80
2019-04-10T01:27:52.181Z,95.40
2019-04-10T01:30:19.623Z,95.40
2019-04-10T01:32:47.885Z,94.90
2019-04-10T01:35:14.849Z,94.90
2019-04-10T01:37:50.272Z,95.00
2019-04-10T01:40:10.769Z,95.30
2019-04-10T01:42:38.637Z,94.90
2019-04-10T01:45:05.281Z,94.80
2019-04-10T01:47:32.868Z,94.80
2019-04-10T01:50:00.497Z,94.90
2019-04-10T01:52:28.991Z,95.10
2019-04-10T01:54:55.686Z,95.60
2019-04-10T01:57:24.742Z,95.60
2019-04-10T01:59:52.328Z,95.50
2019-04-10T02:02:19.927Z,95.70
2019-04-10T02:04:48.011Z,95.80
2019-04-10T02:07:16.093Z,96.10
2019-04-10T02:09:43.502Z,95.80
2019-04-10T02:12:10.401Z,95.70
2019-04-10T02:14:38.714Z,95.00
2019-04-10T02:17:06.478Z,95.00
2019-04-10T02:19:34.736Z,94.80
2019-04-10T02:22:02.455Z,94.80
2019-04-10T02:24:29.919Z,94.40
2019-04-10T02:26:58.198Z,94.70
2019-04-10T02:29:25.952Z,94.50
2019-04-10T02:31:54.479Z,94.40
2019-04-10T02:34:21.283Z,94.40
2019-04-10T02:36:48.835Z,94.30
2019-04-10T02:39:25.717Z,94.20
2019-04-10T02:41:44.000Z,94.30
2019-04-10T02:44:12.039Z,94.40
2019-04-10T02:46:38.866Z,94.00
2019-04-10T02:49:06.348Z,93.70
2019-04-10T02:51:35.084Z,93.70
2019-04-10T02:54:02.445Z,93.80
2019-04-10T02:56:30.555Z,93.90
2019-04-10T02:58:56.711Z,93.90
2019-04-10T03:01:25.113Z,93.90
2019-04-10T03:03:52.547Z,93.90
2019-04-10T03:06:20.536Z,94.20
2019-04-10T03:09:02.411Z,93.90
2019-04-10T03:11:16.925Z,93.80
2019-04-10T03:13:43.045Z,93.70
2019-04-10T03:16:11.773Z,93.60
2019-04-10T03:18:39.062Z,93.60
2019-04-10T03:21:06.816Z,93.60
2019-04-10T03:23:33.650Z,93.60
2019-04-10T03:26:01.451Z,93.60
2019-04-10T03:28:29.200Z,93.60
2019-04-10T03:31:00.007Z,93.60
2019-04-10T03:33:30.463Z,93.50
2019-04-10T03:35:54.943Z,93.40
2019-04-10T03:38:23.731Z,93.40
2019-04-10T03:40:51.419Z,93.40
2019-04-10T03:43:19.380Z,93.40
2019-04-10T03:45:46.676Z,93.50
2019-04-10T03:48:15.845Z,93.70
2019-04-10T03:50:42.444Z,93.70
2019-04-10T03:53:10.038Z,93.30
2019-04-10T03:55:37.968Z,93.20
2019-04-10T03:58:07.077Z,92.80
2019-04-10T04:00:34.257Z,92.80
2019-04-10T04:03:02.289Z,92.80
2019-04-10T04:05:28.902Z,92.70
2019-04-10T04:07:57.204Z,92.80
2019-04-10T04:10:25.357Z,92.70
2019-04-10T04:12:53.117Z,92.80
2019-04-10T04:15:21.969Z,92.90
2019-04-10T04:17:48.910Z,92.90
2019-04-10T04:20:16.929Z,92.80
2019-04-10T04:22:45.986Z,92.90
2019-04-10T04:25:12.846Z,93.00
2019-04-10T04:27:41.976Z,93.10
2019-04-10T04:30:08.537Z,93.10
2019-04-10T04:32:36.058Z,93.20
2019-04-10T04:35:04.560Z,93.10
2019-04-10T04:37:32.005Z,93.40
2019-04-10T04:40:00.464Z,93.40
2019-04-10T04:42:28.435Z,93.20
2019-04-10T04:44:56.206Z,93.10
2019-04-10T04:47:23.063Z,93.00
2019-04-10T04:49:50.644Z,92.90
2019-04-10T04:52:19.004Z,93.00
2019-04-10T04:54:47.739Z,93.00
2019-04-10T04:57:14.979Z,92.80
2019-04-10T04:59:42.776Z,93.00
2019-04-10T05:02:10.172Z,92.70
2019-04-10T05:04:37.705Z,92.70
2019-04-10T05:07:06.244Z,92.70
2019-04-10T05:09:37.015Z,92.80
2019-04-10T05:12:00.687Z,92.90
2019-04-10T05:14:28.406Z,93.20
2019-04-10T05:16:57.517Z,93.20
2019-04-10T05:19:25.508Z,93.00
2019-04-10T05:21:53.900Z,93.10
2019-04-10T05:24:20.423Z,93.10
2019-04-10T05:26:49.014Z,93.10
2019-04-10T05:29:15.597Z,93.30
2019-04-10T05:31:43.223Z,92.90
2019-04-10T05:34:11.444Z,92.80
2019-04-10T05:36:38.434Z,92.90
2019-04-10T05:39:06.861Z,92.90
2019-04-10T05:41:34.618Z,92.90
2019-04-10T05:44:02.797Z,92.60
2019-04-10T05:46:30.355Z,92.60
2019-04-10T05:48:57.944Z,92.30
2019-04-10T05:51:25.410Z,92.30
2019-04-10T05:53:54.199Z,92.50
2019-04-10T05:56:20.721Z,92.60
2019-04-10T05:58:48.989Z,92.70
2019-04-10T06:01:16.398Z,93.00
2019-04-10T06:03:45.605Z,93.00
2019-04-10T06:06:12.527Z,92.70
2019-04-10T06:08:39.500Z,92.70
2019-04-10T06:11:07.069Z,92.70
2019-04-10T06:13:34.781Z,92.60
2019-04-10T06:16:03.464Z,92.60
2019-04-10T06:18:31.294Z,93.00
2019-04-10T06:20:58.831Z,92.90
2019-04-10T06:23:27.533Z,92.60
2019-04-10T06:25:54.762Z,92.60
2019-04-10T06:28:24.672Z,92.10
2019-04-10T06:30:50.349Z,92.10
2019-04-10T06:33:18.019Z,91.80
2019-04-10T06:35:46.816Z,91.90
2019-04-10T06:38:13.166Z,91.90
2019-04-10T06:40:41.974Z,92.10
2019-04-10T06:43:09.157Z,92.10
2019-04-10T06:45:36.768Z,92.00
2019-04-10T06:48:04.354Z,92.10
2019-04-10T06:50:32.095Z,91.70
2019-04-10T06:53:00.768Z,91.80
2019-04-10T06:55:28.451Z,91.80
2019-04-10T06:57:58.917Z,92.00
2019-04-10T07:00:25.117Z,92.00
2019-04-10T07:02:52.675Z,92.00
2019-04-10T07:05:19.876Z,92.10
2019-04-10T07:07:53.785Z,92.10
2019-04-10T07:10:26.129Z,92.10
2019-04-10T07:12:43.865Z,92.00
2019-04-10T07:15:10.836Z,92.00
2019-04-10T07:17:41.059Z,92.10
2019-04-10T07:20:07.338Z,92.10
2019-04-10T07:22:33.987Z,92.20
2019-04-10T07:25:02.742Z,92.00
2019-04-10T07:27:32.778Z,92.10
2019-04-10T07:29:59.410Z,91.80
2019-04-10T07:32:25.705Z,91.70
2019-04-10T07:34:56.419Z,91.70
2019-04-10T07:37:24.076Z,91.60
2019-04-10T07:39:49.156Z,91.50
2019-04-10T07:42:26.743Z,91.10
2019-04-10T07:44:45.157Z,91.10
2019-04-10T07:47:13.296Z,91.40
2019-04-10T07:49:40.321Z,90.90
2019-04-10T07:52:08.343Z,90.50
2019-04-10T07:54:35.590Z,90.40
2019-04-10T07:57:04.198Z,90.20
2019-04-10T07:59:31.266Z,90.30
2019-04-10T08:01:58.395Z,90.30
2019-04-10T08:04:26.855Z,90.30
2019-04-10T08:06:54.376Z,90.10
2019-04-10T08:09:21.207Z,90.20
2019-04-10T08:11:49.559Z,90.20
2019-04-10T08:14:17.196Z,90.20
2019-04-10T08:16:45.532Z,89.90
2019-04-10T08:19:12.451Z,89.30
2019-04-10T08:21:40.790Z,89.40
2019-04-10T08:24:09.424Z,89.40
2019-04-10T08:26:36.675Z,89.60
2019-04-10T08:29:03.679Z,89.80
2019-04-10T08:31:31.192Z,89.70
2019-04-10T08:33:59.037Z,88.90
2019-04-10T08:36:27.636Z,87.50
2019-04-10T08:38:54.993Z,87.40
2019-04-10T08:41:23.308Z,87.30
2019-04-10T08:43:50.294Z,86.50
2019-04-10T08:46:17.769Z,85.50
2019-04-10T08:48:45.152Z,84.90
2019-04-10T08:51:12.821Z,84.20
2019-04-10T08:53:40.390Z,83.60
2019-04-10T08:56:07.966Z,83.50
2019-04-10T08:58:35.616Z,82.50
2019-04-10T09:01:04.986Z,82.20
2019-04-10T09:03:31.554Z,82.20
2019-04-10T09:06:00.929Z,82.30
2019-04-10T09:08:28.718Z,82.30
2019-04-10T09:10:55.126Z,82.10
2019-04-10T09:13:22.756Z,81.60
2019-04-10T09:15:50.349Z,81.40
2019-04-10T09:18:17.957Z,80.60
2019-04-10T09:20:46.915Z,79.40
2019-04-10T09:23:23.767Z,79.40
2019-04-10T09:25:41.624Z,79.60
2019-04-10T09:28:10.520Z,80.30
2019-04-10T09:30:37.904Z,79.60
2019-04-10T09:33:18.978Z,79.90
2019-04-10T09:35:33.886Z,79.90
2019-04-10T09:38:02.150Z,79.90
2019-04-10T09:40:29.987Z,80.20
2019-04-10T09:42:57.721Z,80.50
2019-04-10T09:45:25.304Z,80.50
2019-04-10T09:47:52.662Z,80.10
2019-04-10T09:50:21.307Z,79.90
2019-04-10T09:52:48.293Z,79.90
2019-04-10T09:55:15.908Z,79.70
2019-04-10T09:57:45.058Z,79.30
2019-04-10T10:00:12.018Z,79.30
2019-04-10T10:02:39.928Z,79.20
2019-04-10T10:05:06.900Z,79.20
2019-04-10T10:07:34.792Z,79.10
2019-04-10T10:10:02.161Z,78.80
2019-04-10T10:12:29.703Z,78.70
2019-04-10T10:14:57.644Z,78.80
2019-04-10T10:17:25.506Z,78.60
2019-04-10T10:19:53.842Z,78.50
2019-04-10T10:22:21.001Z,77.70
2019-04-10T10:24:48.949Z,77.10
2019-04-10T10:27:15.717Z,76.90
2019-04-10T10:29:44.097Z,76.20
2019-04-10T10:32:11.045Z,76.40
2019-04-10T10:34:38.778Z,76.20
2019-04-10T10:37:06.362Z,75.90
2019-04-10T10:39:34.818Z,76.00
2019-04-10T10:42:03.204Z,75.50
2019-04-10T10:44:30.315Z,75.40
2019-04-10T10:46:58.012Z,75.50
2019-04-10T10:49:26.509Z,74.50
2019-04-10T10:51:53.338Z,74.00
2019-04-10T10:54:21.091Z,73.90
2019-04-10T10:56:49.198Z,72.50
2019-04-10T10:59:17.614Z,72.70
2019-04-10T11:01:46.069Z,72.70
2019-04-10T11:04:13.587Z,69.20
2019-04-10T11:06:51.467Z,69.10
2019-04-10T11:09:10.239Z,69.00
2019-04-10T11:11:38.627Z,68.90
2019-04-10T11:14:06.076Z,68.20
2019-04-10T11:16:33.898Z,67.70
2019-04-10T11:19:02.595Z,67.70
2019-04-10T11:21:29.944Z,66.80
2019-04-10T11:23:56.467Z,66.60
2019-04-10T11:26:25.409Z,66.10
2019-04-10T11:28:52.964Z,65.80
2019-04-10T11:31:21.121Z,66.00
2019-04-10T11:36:15.253Z,65.40
2019-04-10T11:38:44.962Z,65.80
2019-04-10T11:41:12.474Z,65.30
2019-04-10T11:43:39.004Z,65.50
2019-04-10T11:46:07.818Z,65.80
2019-04-10T11:48:36.514Z,65.40
2019-04-10T11:51:03.255Z,65.40
2019-04-10T11:53:32.690Z,63.60
2019-04-10T11:56:00.317Z,63.50
2019-04-10T11:58:28.907Z,63.40
2019-04-10T12:00:57.312Z,62.10
2019-04-10T12:03:22.614Z,62.50
2019-04-10T12:05:51.809Z,62.80
2019-04-10T12:08:36.227Z,62.80
2019-04-10T12:13:16.467Z,62.30
2019-04-10T12:15:41.250Z,61.80
2019-04-10T12:18:08.890Z,61.90
2019-04-10T12:20:37.439Z,62.00
2019-04-10T12:23:04.942Z,61.40
2019-04-10T12:25:32.279Z,61.10
2019-04-10T12:27:59.867Z,61.10
2019-04-10T12:30:27.452Z,61.60
2019-04-10T12:32:56.808Z,61.40
2019-04-10T12:35:23.446Z,61.60
2019-04-10T12:38:00.716Z,61.10
2019-04-10T12:40:19.494Z,61.40
2019-04-10T12:42:46.247Z,60.90
2019-04-10T12:45:13.827Z,60.50
2019-04-10T12:47:41.981Z,60.90
2019-04-10T12:50:09.036Z,60.60
2019-04-10T12:52:36.701Z,60.30
2019-04-10T12:55:06.708Z,60.60
2019-04-10T12:57:34.911Z,60.20
2019-04-10T13:00:04.513Z,59.50
2019-04-10T13:02:30.296Z,59.50
2019-04-10T13:04:57.145Z,59.30
2019-04-10T13:07:24.737Z,59.70
2019-04-10T13:09:53.951Z,59.20
2019-04-10T13:12:20.846Z,59.50
2019-04-10T13:14:48.591Z,60.50
2019-04-10T13:17:16.504Z,59.80
2019-04-10T13:19:44.986Z,59.10
2019-04-10T13:22:11.957Z,59.10
2019-04-10T13:24:39.699Z,58.90
2019-04-10T13:27:07.228Z,59.00
2019-04-10T13:29:36.800Z,58.50
2019-04-10T13:32:03.458Z,58.50
2019-04-10T13:34:30.341Z,58.10
2019-04-10T13:36:57.928Z,57.30
2019-04-10T13:39:26.631Z,57.40
2019-04-10T13:41:53.564Z,57.30
2019-04-10T13:44:22.406Z,57.20
2019-04-10T13:46:51.031Z,57.20
2019-04-10T13:49:17.786Z,57.30
2019-04-10T13:51:45.957Z,57.80
2019-04-10T13:54:15.100Z,57.80
2019-04-10T13:56:41.375Z,57.50
2019-04-10T13:59:08.894Z,56.60
2019-04-10T14:01:37.779Z,56.60
2019-04-10T14:04:05.049Z,56.60
2019-04-10T14:06:33.903Z,56.70
2019-04-10T14:09:15.647Z,56.10
2019-04-10T14:11:29.121Z,56.20
2019-04-10T14:13:56.041Z,56.40
2019-04-10T14:16:24.729Z,56.30
2019-04-10T14:18:52.871Z,56.00
2019-04-10T14:21:20.738Z,55.50
2019-04-10T14:23:48.637Z,55.80
2019-04-10T14:26:24.915Z,55.80
2019-04-10T14:28:53.452Z,54.50
2019-04-10T14:31:26.666Z,54.40
2019-04-10T14:33:53.580Z,54.70
2019-04-10T14:36:22.394Z,54.60
2019-04-10T14:38:49.573Z,54.70
2019-04-10T14:41:17.873Z,53.60
2019-04-10T14:43:45.651Z,53.70
2019-04-10T14:46:12.453Z,54.10
2019-04-10T14:48:40.393Z,54.10
2019-04-10T14:51:08.113Z,54.40
2019-04-10T14:53:35.328Z,54.50
2019-04-10T14:56:04.058Z,54.50
2019-04-10T14:58:32.905Z,54.20
2019-04-10T15:00:59.919Z,54.20
2019-04-10T15:03:28.414Z,54.60
2019-04-10T15:05:57.012Z,54.60
2019-04-10T15:08:23.805Z,54.70
2019-04-10T15:10:50.655Z,54.80
2019-04-10T15:13:21.187Z,55.00
2019-04-10T15:15:46.206Z,54.80
2019-04-10T15:18:15.026Z,54.90
2019-04-10T15:20:42.531Z,54.40
2019-04-10T15:23:10.117Z,54.50
2019-04-10T15:25:39.447Z,54.70
2019-04-10T15:28:06.502Z,54.70
2019-04-10T15:30:34.745Z,54.60
2019-04-10T15:33:02.533Z,53.60
2019-04-10T15:35:30.733Z,53.60
2019-04-10T15:37:57.757Z,53.20
2019-04-10T15:40:26.172Z,53.30
2019-04-10T15:42:54.563Z,53.10
2019-04-10T15:45:21.762Z,53.10
2019-04-10T15:47:52.601Z,53.40
2019-04-10T15:50:16.418Z,53.90
2019-04-10T15:52:45.087Z,53.60
2019-04-10T15:55:11.580Z,53.80
2019-04-10T15:57:48.695Z,54.50
2019-04-10T16:00:08.556Z,54.40
2019-04-10T16:02:36.371Z,54.40
2019-04-10T16:05:02.816Z,54.60
2019-04-10T16:07:30.797Z,54.90
2019-04-10T16:10:04.984Z,55.10
2019-04-10T16:12:33.185Z,54.40
2019-04-10T16:15:00.549Z,54.30
2019-04-10T16:17:27.486Z,54.60
2019-04-10T16:19:56.141Z,54.90
2019-04-10T16:22:23.467Z,54.80
2019-04-10T16:24:51.236Z,53.90
2019-04-10T16:27:18.716Z,54.00
2019-04-10T16:29:46.943Z,53.90
2019-04-10T16:32:14.742Z,54.00
2019-04-10T16:34:42.868Z,53.50
2019-04-10T16:37:10.462Z,53.60
2019-04-10T16:39:38.305Z,53.60
2019-04-10T16:42:06.497Z,53.90
2019-04-10T16:44:33.155Z,54.20
2019-04-10T16:47:01.614Z,54.10
2019-04-10T16:49:30.903Z,54.00
2019-04-10T16:51:58.744Z,53.70
2019-04-10T16:54:25.521Z,53.70
2019-04-10T16:56:54.286Z,53.80
2019-04-10T16:59:21.876Z,53.60
2019-04-10T17:01:49.452Z,53.90
2019-04-10T17:04:18.807Z,53.00
2019-04-10T17:06:46.346Z,53.00
2019-04-10T17:09:13.018Z,53.10
2019-04-10T17:11:40.958Z,53.00
2019-04-10T17:14:08.243Z,53.10
2019-04-10T17:16:35.820Z,52.90
2019-04-10T17:19:03.790Z,53.00
2019-04-10T17:21:31.380Z,53.00
2019-04-10T17:23:58.959Z,53.30
2019-04-10T17:26:26.723Z,53.60
2019-04-10T17:28:54.528Z,53.70
2019-04-10T17:31:22.476Z,54.00
2019-04-10T17:33:50.225Z,54.00
2019-04-10T17:36:17.326Z,54.00
2019-04-10T17:38:45.004Z,54.30
2019-04-10T17:41:12.551Z,54.00
2019-04-10T17:43:41.288Z,54.50
2019-04-10T17:46:09.096Z,54.20
2019-04-10T17:48:37.629Z,53.30
2019-04-10T17:51:03.703Z,53.30
2019-04-10T17:53:31.556Z,53.10
2019-04-10T17:55:59.955Z,53.10
2019-04-10T17:58:27.462Z,53.00
2019-04-10T18:00:54.085Z,53.30
2019-04-10T18:03:23.397Z,53.90
2019-04-10T18:05:50.971Z,53.30
2019-04-10T18:08:18.869Z,53.30
2019-04-10T18:10:49.941Z,53.70
2019-04-10T18:13:14.430Z,53.60
2019-04-10T18:15:41.993Z,53.90
2019-04-10T18:18:09.967Z,54.20
2019-04-10T18:20:37.544Z,55.10
2019-04-10T18:23:07.011Z,55.40
2019-04-10T18:25:34.091Z,55.40
2019-04-10T18:28:01.460Z,55.30
2019-04-10T18:30:32.460Z,56.30
2019-04-10T18:32:58.180Z,56.20
2019-04-10T18:35:25.023Z,56.00
2019-04-10T18:37:53.540Z,56.70
2019-04-10T18:40:21.143Z,56.70
2019-04-10T18:42:47.822Z,57.00
2019-04-10T18:45:15.494Z,57.30
2019-04-10T18:47:44.110Z,57.70
2019-04-10T18:50:11.985Z,57.70
2019-04-10T18:52:39.319Z,57.90
2019-04-10T18:55:06.616Z,58.20
2019-04-10T18:57:35.222Z,58.50
2019-04-10T19:00:05.898Z,58.50
2019-04-10T19:02:51.038Z,58.40
2019-04-10T19:05:19.388Z,58.50
2019-04-10T19:07:48.142Z,59.50
2019-04-10T19:10:14.609Z,59.00
2019-04-10T19:12:43.115Z,59.30
2019-04-10T19:15:10.753Z,59.50
2019-04-10T19:17:37.411Z,59.70
2019-04-10T19:20:05.903Z,60.00
2019-04-10T19:22:32.568Z,60.00
2019-04-10T19:25:00.692Z,60.10
2019-04-10T19:27:28.468Z,60.00
2019-04-10T19:29:55.390Z,60.00
2019-04-10T19:32:23.320Z,59.90
2019-04-10T19:34:51.814Z,60.10
2019-04-10T19:37:19.254Z,60.30
2019-04-10T19:39:46.913Z,60.20
2019-04-10T19:42:15.330Z,60.10
2019-04-10T19:44:42.076Z,60.20
2019-04-10T19:47:12.324Z,60.10
2019-04-10T19:49:39.955Z,60.10
2019-04-10T19:52:07.178Z,60.30
2019-04-10T19:54:35.394Z,60.20
2019-04-10T19:57:02.414Z,60.60
2019-04-10T19:59:29.987Z,60.80
2019-04-10T20:01:58.380Z,60.50
2019-04-10T20:04:26.722Z,60.70
2019-04-10T20:06:54.462Z,60.70
2019-04-10T20:09:22.217Z,60.80
2019-04-10T20:11:53.856Z,60.80
2019-04-10T20:14:17.088Z,61.10
2019-04-10T20:16:49.400Z,61.50
2019-04-10T20:19:17.095Z,61.50
2019-04-10T20:21:44.018Z,61.60
2019-04-10T20:24:12.382Z,61.90
2019-04-10T20:26:39.710Z,62.00
2019-04-10T20:29:07.286Z,62.20
2019-04-10T20:31:34.915Z,62.20
2019-04-10T20:34:03.266Z,62.30
2019-04-10T20:36:31.062Z,62.40
2019-04-10T20:38:59.041Z,62.50
2019-04-10T20:41:26.472Z,62.70
2019-04-10T20:43:53.941Z,62.90
2019-04-10T20:46:22.268Z,62.80
2019-04-10T20:48:50.864Z,63.20
2019-04-10T20:51:18.579Z,63.10
2019-04-10T20:53:46.259Z,62.90
2019-04-10T20:56:15.389Z,62.90
2019-04-10T20:58:40.371Z,63.00
2019-04-10T21:01:08.762Z,63.00
2019-04-10T21:03:38.052Z,63.00
2019-04-10T21:06:04.763Z,63.10
2019-04-10T21:08:32.100Z,63.30
2019-04-10T21:10:59.686Z,63.50
2019-04-10T21:13:27.268Z,63.60
2019-04-10T21:15:55.659Z,64.90
2019-04-10T21:18:24.011Z,64.10
2019-04-10T21:20:51.595Z,64.10
2019-04-10T21:23:21.644Z,64.20
2019-04-10T21:25:49.747Z,64.30
2019-04-10T21:28:16.415Z,64.20
2019-04-10T21:30:50.648Z,64.40
2019-04-10T21:33:26.595Z,64.60
2019-04-10T21:35:54.568Z,64.20
2019-04-10T21:38:22.174Z,64.20
2019-04-10T21:40:49.745Z,64.30
2019-04-10T21:43:18.533Z,64.30
2019-04-10T21:45:45.713Z,64.50
2019-04-10T21:48:13.291Z,64.40
2019-04-10T21:50:41.794Z,64.50
2019-04-10T21:53:08.564Z,64.60
2019-04-10T21:55:36.145Z,64.80
2019-04-10T21:58:03.906Z,64.90
2019-04-10T22:00:34.605Z,65.10
2019-04-10T22:03:02.774Z,65.20
2019-04-10T22:05:30.366Z,65.30
2019-04-10T22:07:56.812Z,65.40
2019-04-10T22:10:28.090Z,65.60
2019-04-10T22:12:55.390Z,65.00
2019-04-10T22:15:25.734Z,65.70
2019-04-10T22:17:53.131Z,65.10
2019-04-10T22:20:20.752Z,65.20
2019-04-10T22:22:48.332Z,65.30
2019-04-10T22:25:15.923Z,65.60
2019-04-10T22:27:43.609Z,65.60
2019-04-10T22:30:12.117Z,65.90
2019-04-10T22:32:38.802Z,66.10
2019-04-10T22:35:06.706Z,66.00
2019-04-10T22:37:33.883Z,66.20
2019-04-10T22:40:01.453Z,66.30
2019-04-10T22:42:40.167Z,66.40
2019-04-10T22:44:56.663Z,66.40
2019-04-10T22:47:25.072Z,66.50
2019-04-10T22:49:51.860Z,66.60
2019-04-10T22:52:19.580Z,66.70
2019-04-10T22:54:47.014Z,66.60
2019-04-10T22:57:14.631Z,66.70
2019-04-10T22:59:42.974Z,67.20
2019-04-10T23:02:12.036Z,67.20
2019-04-10T23:04:39.143Z,67.30
2019-04-10T23:07:05.999Z,67.30
2019-04-10T23:09:33.350Z,67.50
2019-04-10T23:12:00.968Z,67.50
2019-04-10T23:14:28.987Z,67.60
2019-04-10T23:16:56.735Z,68.40
2019-04-10T23:19:23.739Z,67.80
2019-04-10T23:21:52.439Z,67.90
2019-04-10T23:24:19.114Z,67.90
2019-04-10T23:26:47.070Z,67.40
2019-04-10T23:29:14.129Z,67.30
2019-04-10T23:31:41.725Z,67.40
2019-04-10T23:34:10.098Z,67.90
2019-04-10T23:36:38.439Z,67.50
2019-04-10T23:39:06.107Z,67.40
2019-04-10T23:41:33.750Z,67.50
2019-04-10T23:44:02.072Z,67.80
2019-04-10T23:46:28.830Z,68.10
2019-04-10T23:48:57.313Z,68.30
2019-04-10T23:51:25.205Z,68.50
2019-04-10T23:53:52.959Z,68.90
2019-04-10T23:56:19.845Z,69.60
2019-04-10T23:58:48.145Z,69.40
